Starlake, Wisconsin
Current Conditions -  °F | °C
As of 4:35 AM on Friday 21 Nov 2014 (Local Time) from KEGV Reporting Station
Clear Clear  
Wind Chill: -2°   Ceiling: Unl
Heat Index: -2°   Visibility: 10mi
Dew Point: -7°   Wind: 0mph
Humidity: 79%   Direction: NA
Pressure: 30.19"   Gusts: NA
Location:  46.0405°N, 89.4656°W
Report Text: KEGV 211035Z AUTO 00000KT 10SM CLR M19/M22 A3019 RMK AO2 T11891217
Loading
Personal Weather Stations






























Interactive Weather Map New forecast layout! Learn more

10-Day Weather Forecast

Advertisements
Track Severe Weather on mobile